Terminal Aerodrome Forecast
Issued by NWS Corpus Christi, TX

Home | Current Version | Previous Version | Text Only | Print | Product List | Glossary On
Versions: 1 2 3 4 5 6 7 8 9 10 11 12 13
000
FTUS44 KCRP 290500
TAFVCT
TAF
KVCT 290531Z 2906/3006 21005KT P6SM SCT250
     FM291000 VRB03KT 5SM BR FEW012 SCT250
      TEMPO 2910/2914 3SM BR
     FM291400 VRB06KT P6SM FEW030 FEW250=

USA.gov is the U.S. government's official web portal to all federal, state and local government web resources and services.